Winnie, TX

11:42 PM CST on January 31, 2015 (GMT -0600)
Southeast Texas Regional | Change Station
CLOSE
Current Station
Airport
Location: Beaumont,
Elevation: 13 ft
Nearby Weather Stations

Elev 13 ft 29.95 °N, 94.02 °W | Updated 49 minutes ago

Overcast
Overcast
60 °F
Feels Like 60 °F
N
18
Wind Variable Wind from ESE
Gusts 24 mph

Today
High -- | Low -- °F
--% Chance of Precip.
Yesterday
High -- | Low -- °F
Precip. -- in
7:08 AM 5:54 PM
Waxing Gibbous, 93% visible
Pressure 30.03 in
Visibility 10.0 miles
Clouds Overcast 5000 ft
Dew Point 55 °F
Humidity 83%
Rainfall 0.00 in
Snow Depth Not available.
UV 0 out of 12
Pollen 8.60 out of 12
Air Quality Not available.
Flu Activity Not available.
METAR KBPT 010453Z AUTO 12016G21KT 10SM OVC050 16/13 A3003 RMK AO2 RAB0354E03 SLP169 P0000 T01560128

More Conditions Fewer Conditions

Pressure 30.03 in
Visibility 10.0 miles
Clouds Overcast 5000 ft
Dew Point 55 °F
Humidity 83%
Rainfall 0.00 in
Snow Depth Not available.
UV 0 out of 12
Pollen 8.60 out of 12
Air Quality Not available.
Flu Activity Not available.
METAR KBPT 010453Z AUTO 12016G21KT 10SM OVC050 16/13 A3003 RMK AO2 RAB0354E03 SLP169 P0000 T01560128

More Conditions Fewer Conditions

10-Day Weather Forecast

Almanac

Astronomy

Jan. 31, 2015 Rise Set
Actual Time
Civil Twilight
Nautical Twilight
Astronomical Twilight
Moon
Length of Visible Light
Length of Day
Tomorrow will be .
, % of the Moon is Illuminated

Today's Extremes

State Highs State Lows

Community

WunderPhotos

Upload Photos

1,792,316 photos uploaded!

WunderBlogs® & News

Nearby

Air Quality

  Air Quality AQ Index Pollutant
Not available.

Snow Depth

Station Depth Elevation

Earthquake Activity

City Distance Mag. Time & Date
Minimum magnitude displayed is 2.5.

Coastal Water Temperatures

Place Temperature

Nearby Weather Stations